sensor_id;sensor_type;location;lat;lon;timestamp;P1;durP1;ratioP1;P2;durP2;ratioP2
52041;SDS011;38052;45.944;13.624;2022-11-20T00:02:01;0.47;;;0.10;;
52041;SDS011;38052;45.944;13.624;2022-11-20T00:04:27;3.00;;;0.00;;
52041;SDS011;38052;45.944;13.624;2022-11-20T00:06:53;0.00;;;0.00;;
52041;SDS011;38052;45.944;13.624;2022-11-20T00:09:19;2.63;;;0.13;;
52041;SDS011;38052;45.944;13.624;2022-11-20T00:11:46;0.88;;;0.10;;
52041;SDS011;38052;45.944;13.624;2022-11-20T00:14:12;0.45;;;0.10;;
52041;SDS011;38052;45.944;13.624;2022-11-20T00:16:39;0.90;;;0.10;;
52041;SDS011;38052;45.944;13.624;2022-11-20T00:19:05;0.68;;;0.22;;
52041;SDS011;38052;45.944;13.624;2022-11-20T00:21:31;0.40;;;0.10;;
52041;SDS011;38052;45.944;13.624;2022-11-20T00:23:58;0.45;;;0.10;;
52041;SDS011;38052;45.944;13.624;2022-11-20T00:26:25;0.43;;;0.10;;
52041;SDS011;38052;45.944;13.624;2022-11-20T00:28:52;0.15;;;0.00;;
52041;SDS011;38052;45.944;13.624;2022-11-20T00:31:18;0.40;;;0.10;;
52041;SDS011;38052;45.944;13.624;2022-11-20T00:33:45;0.35;;;0.10;;
52041;SDS011;38052;45.944;13.624;2022-11-20T00:36:18;0.30;;;0.10;;
52041;SDS011;38052;45.944;13.624;2022-11-20T00:38:45;0.50;;;0.10;;
52041;SDS011;38052;45.944;13.624;2022-11-20T00:41:15;0.30;;;0.10;;
52041;SDS011;38052;45.944;13.624;2022-11-20T00:43:41;2.22;;;0.10;;
52041;SDS011;38052;45.944;13.624;2022-11-20T00:46:09;0.38;;;0.10;;
52041;SDS011;38052;45.944;13.624;2022-11-20T00:48:36;0.15;;;0.10;;
52041;SDS011;38052;45.944;13.624;2022-11-20T00:51:02;0.60;;;0.10;;
52041;SDS011;38052;45.944;13.624;2022-11-20T00:53:29;0.22;;;0.00;;
52041;SDS011;38052;45.944;13.624;2022-11-20T00:55:59;0.40;;;0.20;;
52041;SDS011;38052;45.944;13.624;2022-11-20T00:58:28;0.00;;;0.00;;
52041;SDS011;38052;45.944;13.624;2022-11-20T01:01:08;0.40;;;0.00;;
52041;SDS011;38052;45.944;13.624;2022-11-20T01:03:36;0.75;;;0.00;;
52041;SDS011;38052;45.944;13.624;2022-11-20T01:06:05;0.20;;;0.00;;
52041;SDS011;38052;45.944;13.624;2022-11-20T01:08:34;0.05;;;0.00;;
52041;SDS011;38052;45.944;13.624;2022-11-20T01:11:05;0.40;;;0.00;;
52041;SDS011;38052;45.944;13.624;2022-11-20T01:16:17;0.38;;;0.10;;
52041;SDS011;38052;45.944;13.624;2022-11-20T01:18:45;0.88;;;0.10;;
52041;SDS011;38052;45.944;13.624;2022-11-20T01:21:17;0.20;;;0.00;;
52041;SDS011;38052;45.944;13.624;2022-11-20T01:26:11;0.20;;;0.00;;
52041;SDS011;38052;45.944;13.624;2022-11-20T01:28:38;0.47;;;0.03;;
52041;SDS011;38052;45.944;13.624;2022-11-20T01:34:02;0.20;;;0.08;;
52041;SDS011;38052;45.944;13.624;2022-11-20T01:36:29;0.40;;;0.00;;
52041;SDS011;38052;45.944;13.624;2022-11-20T01:38:58;0.40;;;0.10;;
52041;SDS011;38052;45.944;13.624;2022-11-20T01:41:25;0.35;;;0.20;;
52041;SDS011;38052;45.944;13.624;2022-11-20T01:44:10;0.82;;;0.20;;
52041;SDS011;38052;45.944;13.624;2022-11-20T01:46:38;0.52;;;0.30;;
52041;SDS011;38052;45.944;13.624;2022-11-20T01:51:39;0.90;;;0.10;;
52041;SDS011;38052;45.944;13.624;2022-11-20T01:54:08;0.45;;;0.10;;
52041;SDS011;38052;45.944;13.624;2022-11-20T01:56:36;0.30;;;0.05;;
52041;SDS011;38052;45.944;13.624;2022-11-20T01:59:03;0.10;;;0.10;;
52041;SDS011;38052;45.944;13.624;2022-11-20T02:01:30;3.47;;;0.25;;
52041;SDS011;38052;45.944;13.624;2022-11-20T02:03:56;0.43;;;0.00;;
52041;SDS011;38052;45.944;13.624;2022-11-20T02:06:30;0.50;;;0.20;;
52041;SDS011;38052;45.944;13.624;2022-11-20T02:08:59;0.45;;;0.00;;
52041;SDS011;38052;45.944;13.624;2022-11-20T02:11:25;0.00;;;0.00;;
52041;SDS011;38052;45.944;13.624;2022-11-20T02:13:52;0.40;;;0.10;;
52041;SDS011;38052;45.944;13.624;2022-11-20T02:16:37;0.95;;;0.00;;
52041;SDS011;38052;45.944;13.624;2022-11-20T02:19:04;1.20;;;0.10;;
52041;SDS011;38052;45.944;13.624;2022-11-20T02:21:37;0.20;;;0.17;;
52041;SDS011;38052;45.944;13.624;2022-11-20T02:24:11;1.08;;;0.20;;
52041;SDS011;38052;45.944;13.624;2022-11-20T02:26:51;0.28;;;0.00;;
52041;SDS011;38052;45.944;13.624;2022-11-20T02:29:25;0.30;;;0.10;;
52041;SDS011;38052;45.944;13.624;2022-11-20T02:31:52;0.10;;;0.00;;
52041;SDS011;38052;45.944;13.624;2022-11-20T02:34:20;0.20;;;0.05;;
52041;SDS011;38052;45.944;13.624;2022-11-20T02:36:46;0.32;;;0.10;;
52041;SDS011;38052;45.944;13.624;2022-11-20T02:39:13;0.20;;;0.03;;
52041;SDS011;38052;45.944;13.624;2022-11-20T02:41:42;0.13;;;0.00;;
52041;SDS011;38052;45.944;13.624;2022-11-20T02:44:08;0.52;;;0.00;;
52041;SDS011;38052;45.944;13.624;2022-11-20T02:46:35;0.25;;;0.00;;
52041;SDS011;38052;45.944;13.624;2022-11-20T02:49:02;0.05;;;0.00;;
52041;SDS011;38052;45.944;13.624;2022-11-20T02:51:29;0.43;;;0.10;;
52041;SDS011;38052;45.944;13.624;2022-11-20T02:53:55;0.47;;;0.10;;
52041;SDS011;38052;45.944;13.624;2022-11-20T02:56:22;1.73;;;0.03;;
52041;SDS011;38052;45.944;13.624;2022-11-20T02:58:48;0.38;;;0.10;;
52041;SDS011;38052;45.944;13.624;2022-11-20T03:01:14;1.17;;;0.20;;
52041;SDS011;38052;45.944;13.624;2022-11-20T03:03:40;0.20;;;0.10;;
52041;SDS011;38052;45.944;13.624;2022-11-20T03:06:06;1.55;;;0.00;;
52041;SDS011;38052;45.944;13.624;2022-11-20T03:08:32;1.00;;;0.00;;
52041;SDS011;38052;45.944;13.624;2022-11-20T03:11:06;0.28;;;0.00;;
52041;SDS011;38052;45.944;13.624;2022-11-20T03:13:32;0.00;;;0.00;;
52041;SDS011;38052;45.944;13.624;2022-11-20T03:16:04;0.10;;;0.00;;
52041;SDS011;38052;45.944;13.624;2022-11-20T03:18:30;0.10;;;0.05;;
52041;SDS011;38052;45.944;13.624;2022-11-20T03:20:57;0.10;;;0.00;;
52041;SDS011;38052;45.944;13.624;2022-11-20T03:23:24;0.75;;;0.15;;
52041;SDS011;38052;45.944;13.624;2022-11-20T03:25:50;0.20;;;0.00;;
52041;SDS011;38052;45.944;13.624;2022-11-20T03:28:17;0.45;;;0.00;;
52041;SDS011;38052;45.944;13.624;2022-11-20T03:30:43;0.10;;;0.00;;
52041;SDS011;38052;45.944;13.624;2022-11-20T03:33:09;0.98;;;0.10;;
52041;SDS011;38052;45.944;13.624;2022-11-20T03:35:36;0.05;;;0.00;;
52041;SDS011;38052;45.944;13.624;2022-11-20T03:38:02;0.05;;;0.00;;
52041;SDS011;38052;45.944;13.624;2022-11-20T03:40:29;0.05;;;0.00;;
52041;SDS011;38052;45.944;13.624;2022-11-20T03:42:56;0.65;;;0.10;;
52041;SDS011;38052;45.944;13.624;2022-11-20T03:45:23;0.00;;;0.00;;
52041;SDS011;38052;45.944;13.624;2022-11-20T03:47:49;0.30;;;0.00;;
52041;SDS011;38052;45.944;13.624;2022-11-20T03:50:17;0.55;;;0.17;;
52041;SDS011;38052;45.944;13.624;2022-11-20T03:52:43;0.05;;;0.00;;
52041;SDS011;38052;45.944;13.624;2022-11-20T03:55:10;0.00;;;0.00;;
52041;SDS011;38052;45.944;13.624;2022-11-20T03:57:36;0.30;;;0.00;;
52041;SDS011;38052;45.944;13.624;2022-11-20T04:00:03;0.10;;;0.00;;
52041;SDS011;38052;45.944;13.624;2022-11-20T04:02:29;0.13;;;0.00;;
52041;SDS011;38052;45.944;13.624;2022-11-20T04:04:55;0.22;;;0.00;;
52041;SDS011;38052;45.944;13.624;2022-11-20T04:07:22;0.00;;;0.00;;
52041;SDS011;38052;45.944;13.624;2022-11-20T04:09:49;0.00;;;0.00;;
52041;SDS011;38052;45.944;13.624;2022-11-20T04:12:15;0.10;;;0.00;;
52041;SDS011;38052;45.944;13.624;2022-11-20T04:14:42;0.13;;;0.08;;
52041;SDS011;38052;45.944;13.624;2022-11-20T04:17:08;0.00;;;0.00;;
52041;SDS011;38052;45.944;13.624;2022-11-20T04:19:34;0.85;;;0.13;;
52041;SDS011;38052;45.944;13.624;2022-11-20T04:22:01;0.08;;;0.00;;
52041;SDS011;38052;45.944;13.624;2022-11-20T04:24:27;0.47;;;0.10;;
52041;SDS011;38052;45.944;13.624;2022-11-20T04:26:54;0.25;;;0.00;;
52041;SDS011;38052;45.944;13.624;2022-11-20T04:29:20;0.00;;;0.00;;
52041;SDS011;38052;45.944;13.624;2022-11-20T04:31:46;0.30;;;0.03;;
52041;SDS011;38052;45.944;13.624;2022-11-20T04:34:13;0.00;;;0.00;;
52041;SDS011;38052;45.944;13.624;2022-11-20T04:36:39;0.00;;;0.00;;
52041;SDS011;38052;45.944;13.624;2022-11-20T04:39:06;0.00;;;0.00;;
52041;SDS011;38052;45.944;13.624;2022-11-20T04:41:33;0.32;;;0.03;;
52041;SDS011;38052;45.944;13.624;2022-11-20T04:44:01;0.38;;;0.00;;
52041;SDS011;38052;45.944;13.624;2022-11-20T04:46:29;0.10;;;0.00;;
52041;SDS011;38052;45.944;13.624;2022-11-20T04:48:55;0.08;;;0.00;;
52041;SDS011;38052;45.944;13.624;2022-11-20T04:51:22;0.17;;;0.00;;
52041;SDS011;38052;45.944;13.624;2022-11-20T04:53:48;0.30;;;0.00;;
52041;SDS011;38052;45.944;13.624;2022-11-20T04:56:15;0.00;;;0.00;;
52041;SDS011;38052;45.944;13.624;2022-11-20T04:58:41;0.00;;;0.00;;
52041;SDS011;38052;45.944;13.624;2022-11-20T05:01:09;0.10;;;0.00;;
52041;SDS011;38052;45.944;13.624;2022-11-20T05:03:36;0.47;;;0.10;;
52041;SDS011;38052;45.944;13.624;2022-11-20T05:06:03;0.55;;;0.10;;
52041;SDS011;38052;45.944;13.624;2022-11-20T05:08:30;0.40;;;0.10;;
52041;SDS011;38052;45.944;13.624;2022-11-20T05:11:03;0.70;;;0.10;;
52041;SDS011;38052;45.944;13.624;2022-11-20T05:13:29;1.05;;;0.05;;
52041;SDS011;38052;45.944;13.624;2022-11-20T05:16:00;0.43;;;0.20;;
52041;SDS011;38052;45.944;13.624;2022-11-20T05:18:26;1.58;;;0.20;;
52041;SDS011;38052;45.944;13.624;2022-11-20T05:20:56;0.43;;;0.10;;
52041;SDS011;38052;45.944;13.624;2022-11-20T05:23:22;0.10;;;0.00;;
52041;SDS011;38052;45.944;13.624;2022-11-20T05:25:51;0.93;;;0.32;;
52041;SDS011;38052;45.944;13.624;2022-11-20T05:28:17;0.15;;;0.08;;
52041;SDS011;38052;45.944;13.624;2022-11-20T05:30:44;0.45;;;0.13;;
52041;SDS011;38052;45.944;13.624;2022-11-20T05:33:10;0.55;;;0.15;;
52041;SDS011;38052;45.944;13.624;2022-11-20T05:35:37;1.25;;;0.20;;
52041;SDS011;38052;45.944;13.624;2022-11-20T05:38:03;0.45;;;0.00;;
52041;SDS011;38052;45.944;13.624;2022-11-20T05:40:29;0.65;;;0.20;;
52041;SDS011;38052;45.944;13.624;2022-11-20T05:42:56;0.88;;;0.10;;
52041;SDS011;38052;45.944;13.624;2022-11-20T05:45:22;0.40;;;0.10;;
52041;SDS011;38052;45.944;13.624;2022-11-20T05:47:49;0.30;;;0.08;;
52041;SDS011;38052;45.944;13.624;2022-11-20T05:50:15;0.30;;;0.10;;
52041;SDS011;38052;45.944;13.624;2022-11-20T05:52:42;0.43;;;0.10;;
52041;SDS011;38052;45.944;13.624;2022-11-20T05:55:09;0.68;;;0.10;;
52041;SDS011;38052;45.944;13.624;2022-11-20T05:57:35;0.22;;;0.00;;
52041;SDS011;38052;45.944;13.624;2022-11-20T06:00:02;0.30;;;0.10;;
52041;SDS011;38052;45.944;13.624;2022-11-20T06:02:28;0.20;;;0.10;;
52041;SDS011;38052;45.944;13.624;2022-11-20T06:04:55;1.55;;;0.00;;
52041;SDS011;38052;45.944;13.624;2022-11-20T06:07:21;0.00;;;0.00;;
52041;SDS011;38052;45.944;13.624;2022-11-20T06:09:48;0.90;;;0.10;;
52041;SDS011;38052;45.944;13.624;2022-11-20T06:12:14;0.85;;;0.30;;
52041;SDS011;38052;45.944;13.624;2022-11-20T06:14:41;0.75;;;0.22;;
52041;SDS011;38052;45.944;13.624;2022-11-20T06:17:07;1.95;;;0.10;;
52041;SDS011;38052;45.944;13.624;2022-11-20T06:19:34;1.95;;;0.75;;
52041;SDS011;38052;45.944;13.624;2022-11-20T06:22:01;6.50;;;0.63;;
52041;SDS011;38052;45.944;13.624;2022-11-20T06:24:27;0.93;;;0.10;;
52041;SDS011;38052;45.944;13.624;2022-11-20T06:26:54;1.63;;;0.15;;
52041;SDS011;38052;45.944;13.624;2022-11-20T06:29:20;0.43;;;0.10;;
52041;SDS011;38052;45.944;13.624;2022-11-20T06:31:47;0.60;;;0.15;;
52041;SDS011;38052;45.944;13.624;2022-11-20T06:34:13;3.40;;;0.13;;
52041;SDS011;38052;45.944;13.624;2022-11-20T06:36:40;0.68;;;0.17;;
52041;SDS011;38052;45.944;13.624;2022-11-20T06:39:06;1.85;;;0.10;;
52041;SDS011;38052;45.944;13.624;2022-11-20T06:41:32;0.47;;;0.10;;
52041;SDS011;38052;45.944;13.624;2022-11-20T06:43:59;1.02;;;0.20;;
52041;SDS011;38052;45.944;13.624;2022-11-20T06:46:26;0.40;;;0.10;;
52041;SDS011;38052;45.944;13.624;2022-11-20T06:48:52;0.40;;;0.10;;
52041;SDS011;38052;45.944;13.624;2022-11-20T06:51:19;0.28;;;0.00;;
52041;SDS011;38052;45.944;13.624;2022-11-20T06:53:46;0.47;;;0.10;;
52041;SDS011;38052;45.944;13.624;2022-11-20T06:56:12;0.40;;;0.10;;
52041;SDS011;38052;45.944;13.624;2022-11-20T06:58:38;1.55;;;0.20;;
52041;SDS011;38052;45.944;13.624;2022-11-20T07:01:09;1.90;;;0.32;;
52041;SDS011;38052;45.944;13.624;2022-11-20T07:03:35;1.95;;;0.80;;
52041;SDS011;38052;45.944;13.624;2022-11-20T07:06:02;1.23;;;0.60;;
52041;SDS011;38052;45.944;13.624;2022-11-20T07:08:28;3.10;;;1.02;;
52041;SDS011;38052;45.944;13.624;2022-11-20T07:10:59;3.00;;;0.80;;
52041;SDS011;38052;45.944;13.624;2022-11-20T07:13:29;4.70;;;0.70;;
52041;SDS011;38052;45.944;13.624;2022-11-20T07:15:58;1.20;;;0.40;;
52041;SDS011;38052;45.944;13.624;2022-11-20T07:18:25;1.00;;;0.35;;
52041;SDS011;38052;45.944;13.624;2022-11-20T07:20:51;1.73;;;0.57;;
52041;SDS011;38052;45.944;13.624;2022-11-20T07:23:18;1.77;;;0.85;;
52041;SDS011;38052;45.944;13.624;2022-11-20T07:25:45;3.15;;;1.05;;
52041;SDS011;38052;45.944;13.624;2022-11-20T07:28:11;4.10;;;0.75;;
52041;SDS011;38052;45.944;13.624;2022-11-20T07:30:38;1.48;;;0.50;;
52041;SDS011;38052;45.944;13.624;2022-11-20T07:33:05;2.85;;;0.88;;
52041;SDS011;38052;45.944;13.624;2022-11-20T07:35:31;3.55;;;0.90;;
52041;SDS011;38052;45.944;13.624;2022-11-20T07:37:57;2.08;;;0.55;;
52041;SDS011;38052;45.944;13.624;2022-11-20T07:40:24;1.10;;;0.60;;
52041;SDS011;38052;45.944;13.624;2022-11-20T07:42:51;0.88;;;0.32;;
52041;SDS011;38052;45.944;13.624;2022-11-20T07:45:18;2.10;;;0.93;;
52041;SDS011;38052;45.944;13.624;2022-11-20T07:47:45;3.22;;;1.67;;
52041;SDS011;38052;45.944;13.624;2022-11-20T07:50:12;3.10;;;1.13;;
52041;SDS011;38052;45.944;13.624;2022-11-20T07:52:38;2.30;;;0.98;;
52041;SDS011;38052;45.944;13.624;2022-11-20T07:55:05;2.42;;;1.10;;
52041;SDS011;38052;45.944;13.624;2022-11-20T07:57:31;4.03;;;2.10;;
52041;SDS011;38052;45.944;13.624;2022-11-20T07:59:57;5.75;;;3.75;;
52041;SDS011;38052;45.944;13.624;2022-11-20T08:02:23;3.45;;;2.00;;
52041;SDS011;38052;45.944;13.624;2022-11-20T08:04:50;4.97;;;1.92;;
52041;SDS011;38052;45.944;13.624;2022-11-20T08:07:17;2.72;;;1.27;;
52041;SDS011;38052;45.944;13.624;2022-11-20T08:09:43;9.30;;;5.60;;
52041;SDS011;38052;45.944;13.624;2022-11-20T08:12:16;6.88;;;3.80;;
52041;SDS011;38052;45.944;13.624;2022-11-20T08:15:02;6.13;;;3.70;;
52041;SDS011;38052;45.944;13.624;2022-11-20T08:17:29;5.00;;;2.97;;
52041;SDS011;38052;45.944;13.624;2022-11-20T08:19:55;6.05;;;3.17;;
52041;SDS011;38052;45.944;13.624;2022-11-20T08:22:21;6.68;;;4.57;;
52041;SDS011;38052;45.944;13.624;2022-11-20T08:24:47;5.43;;;3.90;;
52041;SDS011;38052;45.944;13.624;2022-11-20T08:27:14;4.95;;;1.42;;
52041;SDS011;38052;45.944;13.624;2022-11-20T08:29:40;2.92;;;1.42;;
52041;SDS011;38052;45.944;13.624;2022-11-20T08:32:07;4.78;;;1.85;;
52041;SDS011;38052;45.944;13.624;2022-11-20T08:34:33;2.22;;;0.98;;
52041;SDS011;38052;45.944;13.624;2022-11-20T08:37:01;3.65;;;1.30;;
52041;SDS011;38052;45.944;13.624;2022-11-20T08:39:28;1.67;;;0.80;;
52041;SDS011;38052;45.944;13.624;2022-11-20T08:41:54;2.30;;;0.65;;
52041;SDS011;38052;45.944;13.624;2022-11-20T08:44:21;1.90;;;0.80;;
52041;SDS011;38052;45.944;13.624;2022-11-20T08:46:48;0.95;;;0.32;;
52041;SDS011;38052;45.944;13.624;2022-11-20T08:49:15;1.35;;;0.30;;
52041;SDS011;38052;45.944;13.624;2022-11-20T08:51:41;1.05;;;0.20;;
52041;SDS011;38052;45.944;13.624;2022-11-20T08:54:08;0.90;;;0.40;;
52041;SDS011;38052;45.944;13.624;2022-11-20T08:56:34;0.73;;;0.30;;
52041;SDS011;38052;45.944;13.624;2022-11-20T08:59:01;1.88;;;0.43;;
52041;SDS011;38052;45.944;13.624;2022-11-20T09:01:27;1.33;;;0.38;;
52041;SDS011;38052;45.944;13.624;2022-11-20T09:03:57;2.60;;;0.63;;
52041;SDS011;38052;45.944;13.624;2022-11-20T09:06:25;1.10;;;0.40;;
52041;SDS011;38052;45.944;13.624;2022-11-20T09:08:52;1.55;;;0.30;;
52041;SDS011;38052;45.944;13.624;2022-11-20T09:11:18;1.15;;;0.30;;
52041;SDS011;38052;45.944;13.624;2022-11-20T09:13:44;1.27;;;0.30;;
52041;SDS011;38052;45.944;13.624;2022-11-20T09:16:11;1.63;;;0.50;;
52041;SDS011;38052;45.944;13.624;2022-11-20T09:18:37;1.10;;;0.40;;
52041;SDS011;38052;45.944;13.624;2022-11-20T09:21:06;1.73;;;0.70;;
52041;SDS011;38052;45.944;13.624;2022-11-20T09:23:33;2.83;;;0.50;;
52041;SDS011;38052;45.944;13.624;2022-11-20T09:26:07;1.40;;;0.22;;
52041;SDS011;38052;45.944;13.624;2022-11-20T09:28:33;0.50;;;0.20;;
52041;SDS011;38052;45.944;13.624;2022-11-20T09:31:00;0.40;;;0.10;;
52041;SDS011;38052;45.944;13.624;2022-11-20T09:33:26;0.90;;;0.20;;
52041;SDS011;38052;45.944;13.624;2022-11-20T09:35:52;0.30;;;0.10;;
52041;SDS011;38052;45.944;13.624;2022-11-20T09:38:18;0.32;;;0.10;;
52041;SDS011;38052;45.944;13.624;2022-11-20T09:40:47;0.65;;;0.20;;
52041;SDS011;38052;45.944;13.624;2022-11-20T09:43:19;0.95;;;0.20;;
52041;SDS011;38052;45.944;13.624;2022-11-20T09:45:50;1.23;;;0.10;;
52041;SDS011;38052;45.944;13.624;2022-11-20T09:51:16;0.50;;;0.10;;
52041;SDS011;38052;45.944;13.624;2022-11-20T09:56:33;0.98;;;0.17;;
52041;SDS011;38052;45.944;13.624;2022-11-20T09:59:02;1.20;;;0.10;;
52041;SDS011;38052;45.944;13.624;2022-11-20T10:01:31;0.20;;;0.10;;
52041;SDS011;38052;45.944;13.624;2022-11-20T10:06:39;0.30;;;0.20;;
52041;SDS011;38052;45.944;13.624;2022-11-20T10:09:14;0.28;;;0.00;;
52041;SDS011;38052;45.944;13.624;2022-11-20T10:27:04;0.40;;;0.10;;
52041;SDS011;38052;45.944;13.624;2022-11-20T10:29:33;0.30;;;0.10;;
52041;SDS011;38052;45.944;13.624;2022-11-20T10:32:11;0.00;;;0.00;;
52041;SDS011;38052;45.944;13.624;2022-11-20T10:34:52;1.23;;;0.10;;
52041;SDS011;38052;45.944;13.624;2022-11-20T10:37:27;0.47;;;0.10;;
52041;SDS011;38052;45.944;13.624;2022-11-20T10:48:31;0.25;;;0.03;;
52041;SDS011;38052;45.944;13.624;2022-11-20T10:50:40;0.03;;;0.00;;
52041;SDS011;38052;45.944;13.624;2022-11-20T10:53:28;0.32;;;0.10;;
52041;SDS011;38052;45.944;13.624;2022-11-20T10:56:01;0.65;;;0.10;;
52041;SDS011;38052;45.944;13.624;2022-11-20T11:03:37;0.22;;;0.10;;
52041;SDS011;38052;45.944;13.624;2022-11-20T11:06:17;1.20;;;0.10;;
52041;SDS011;38052;45.944;13.624;2022-11-20T11:08:46;0.57;;;0.10;;
52041;SDS011;38052;45.944;13.624;2022-11-20T11:11:21;0.20;;;0.10;;
52041;SDS011;38052;45.944;13.624;2022-11-20T11:13:48;1.05;;;0.20;;
52041;SDS011;38052;45.944;13.624;2022-11-20T11:16:22;0.20;;;0.10;;
52041;SDS011;38052;45.944;13.624;2022-11-20T11:18:48;0.75;;;0.20;;
52041;SDS011;38052;45.944;13.624;2022-11-20T11:21:21;0.40;;;0.10;;
52041;SDS011;38052;45.944;13.624;2022-11-20T11:23:56;0.40;;;0.13;;
52041;SDS011;38052;45.944;13.624;2022-11-20T11:26:24;1.05;;;0.40;;
52041;SDS011;38052;45.944;13.624;2022-11-20T11:29:00;3.22;;;1.30;;
52041;SDS011;38052;45.944;13.624;2022-11-20T11:31:30;0.85;;;0.30;;
52041;SDS011;38052;45.944;13.624;2022-11-20T11:34:13;0.20;;;0.10;;
52041;SDS011;38052;45.944;13.624;2022-11-20T11:36:40;0.95;;;0.20;;
52041;SDS011;38052;45.944;13.624;2022-11-20T11:39:14;0.65;;;0.20;;
52041;SDS011;38052;45.944;13.624;2022-11-20T11:41:41;0.50;;;0.10;;
52041;SDS011;38052;45.944;13.624;2022-11-20T11:47:08;0.08;;;0.00;;
52041;SDS011;38052;45.944;13.624;2022-11-20T11:49:36;0.38;;;0.10;;
52041;SDS011;38052;45.944;13.624;2022-11-20T11:54:40;0.60;;;0.15;;
52041;SDS011;38052;45.944;13.624;2022-11-20T11:57:10;0.82;;;0.22;;
52041;SDS011;38052;45.944;13.624;2022-11-20T12:02:31;1.83;;;0.60;;
52041;SDS011;38052;45.944;13.624;2022-11-20T12:04:54;0.60;;;0.20;;
52041;SDS011;38052;45.944;13.624;2022-11-20T12:15:48;1.13;;;0.17;;
52041;SDS011;38052;45.944;13.624;2022-11-20T12:18:15;1.23;;;0.40;;
52041;SDS011;38052;45.944;13.624;2022-11-20T12:20:43;0.77;;;0.30;;
52041;SDS011;38052;45.944;13.624;2022-11-20T12:23:17;1.20;;;0.30;;
52041;SDS011;38052;45.944;13.624;2022-11-20T12:25:47;0.70;;;0.20;;
52041;SDS011;38052;45.944;13.624;2022-11-20T12:33:37;0.70;;;0.15;;
52041;SDS011;38052;45.944;13.624;2022-11-20T12:36:17;0.30;;;0.10;;
52041;SDS011;38052;45.944;13.624;2022-11-20T12:38:49;0.47;;;0.10;;
52041;SDS011;38052;45.944;13.624;2022-11-20T12:49:48;1.20;;;0.30;;
52041;SDS011;38052;45.944;13.624;2022-11-20T13:08:02;0.63;;;0.20;;
52041;SDS011;38052;45.944;13.624;2022-11-20T13:13:01;0.70;;;0.10;;
52041;SDS011;38052;45.944;13.624;2022-11-20T13:17:58;0.90;;;0.10;;
52041;SDS011;38052;45.944;13.624;2022-11-20T13:20:25;0.28;;;0.10;;
52041;SDS011;38052;45.944;13.624;2022-11-20T13:22:53;0.25;;;0.10;;
52041;SDS011;38052;45.944;13.624;2022-11-20T13:25:23;0.38;;;0.20;;
52041;SDS011;38052;45.944;13.624;2022-11-20T13:27:50;0.50;;;0.10;;
52041;SDS011;38052;45.944;13.624;2022-11-20T13:30:17;0.22;;;0.00;;
52041;SDS011;38052;45.944;13.624;2022-11-20T13:35:23;0.20;;;0.00;;
52041;SDS011;38052;45.944;13.624;2022-11-20T13:37:59;0.00;;;0.00;;
52041;SDS011;38052;45.944;13.624;2022-11-20T13:40:25;0.40;;;0.10;;
52041;SDS011;38052;45.944;13.624;2022-11-20T13:42:56;0.20;;;0.00;;
52041;SDS011;38052;45.944;13.624;2022-11-20T13:45:28;0.47;;;0.10;;
52041;SDS011;38052;45.944;13.624;2022-11-20T13:47:55;0.55;;;0.10;;
52041;SDS011;38052;45.944;13.624;2022-11-20T13:50:27;0.52;;;0.22;;
52041;SDS011;38052;45.944;13.624;2022-11-20T14:01:10;1.92;;;0.50;;
52041;SDS011;38052;45.944;13.624;2022-11-20T14:03:36;0.93;;;0.20;;
52041;SDS011;38052;45.944;13.624;2022-11-20T14:06:05;1.10;;;0.40;;
52041;SDS011;38052;45.944;13.624;2022-11-20T14:08:48;0.73;;;0.20;;
52041;SDS011;38052;45.944;13.624;2022-11-20T14:16:30;0.30;;;0.10;;
52041;SDS011;38052;45.944;13.624;2022-11-20T14:18:57;0.80;;;0.30;;
52041;SDS011;38052;45.944;13.624;2022-11-20T14:21:24;0.85;;;0.25;;
52041;SDS011;38052;45.944;13.624;2022-11-20T14:23:52;0.70;;;0.38;;
52041;SDS011;38052;45.944;13.624;2022-11-20T14:26:18;1.38;;;0.28;;
52041;SDS011;38052;45.944;13.624;2022-11-20T14:28:49;1.52;;;0.50;;
52041;SDS011;38052;45.944;13.624;2022-11-20T14:31:25;2.38;;;0.60;;
52041;SDS011;38052;45.944;13.624;2022-11-20T14:33:53;1.55;;;0.50;;
52041;SDS011;38052;45.944;13.624;2022-11-20T14:36:21;1.15;;;0.50;;
52041;SDS011;38052;45.944;13.624;2022-11-20T14:38:48;2.05;;;0.60;;
52041;SDS011;38052;45.944;13.624;2022-11-20T14:41:18;1.92;;;0.60;;
52041;SDS011;38052;45.944;13.624;2022-11-20T14:43:45;2.30;;;0.60;;
52041;SDS011;38052;45.944;13.624;2022-11-20T14:46:12;1.63;;;0.65;;
52041;SDS011;38052;45.944;13.624;2022-11-20T14:48:43;1.33;;;0.47;;
52041;SDS011;38052;45.944;13.624;2022-11-20T14:51:12;1.15;;;0.43;;
52041;SDS011;38052;45.944;13.624;2022-11-20T14:53:49;0.93;;;0.20;;
52041;SDS011;38052;45.944;13.624;2022-11-20T14:56:20;0.90;;;0.20;;
52041;SDS011;38052;45.944;13.624;2022-11-20T14:58:55;0.90;;;0.28;;
52041;SDS011;38052;45.944;13.624;2022-11-20T15:01:25;0.80;;;0.30;;
52041;SDS011;38052;45.944;13.624;2022-11-20T15:03:58;1.30;;;0.40;;
52041;SDS011;38052;45.944;13.624;2022-11-20T15:06:26;1.20;;;0.50;;
52041;SDS011;38052;45.944;13.624;2022-11-20T15:08:52;1.10;;;0.50;;
52041;SDS011;38052;45.944;13.624;2022-11-20T15:11:20;1.02;;;0.40;;
52041;SDS011;38052;45.944;13.624;2022-11-20T15:13:49;1.27;;;0.37;;
52041;SDS011;38052;45.944;13.624;2022-11-20T15:16:17;1.30;;;0.30;;
52041;SDS011;38052;45.944;13.624;2022-11-20T15:18:44;1.05;;;0.40;;
52041;SDS011;38052;45.944;13.624;2022-11-20T15:21:15;0.80;;;0.20;;
52041;SDS011;38052;45.944;13.624;2022-11-20T15:23:42;0.70;;;0.35;;
52041;SDS011;38052;45.944;13.624;2022-11-20T15:26:09;1.02;;;0.38;;
52041;SDS011;38052;45.944;13.624;2022-11-20T15:28:37;0.90;;;0.30;;
52041;SDS011;38052;45.944;13.624;2022-11-20T15:31:05;1.35;;;0.57;;
52041;SDS011;38052;45.944;13.624;2022-11-20T15:33:31;0.95;;;0.40;;
52041;SDS011;38052;45.944;13.624;2022-11-20T15:35:58;1.25;;;0.55;;
52041;SDS011;38052;45.944;13.624;2022-11-20T15:38:24;3.28;;;1.98;;
52041;SDS011;38052;45.944;13.624;2022-11-20T15:40:50;3.38;;;1.85;;
52041;SDS011;38052;45.944;13.624;2022-11-20T15:43:17;6.20;;;3.38;;
52041;SDS011;38052;45.944;13.624;2022-11-20T15:45:44;7.25;;;3.40;;
52041;SDS011;38052;45.944;13.624;2022-11-20T15:48:12;5.03;;;3.33;;
52041;SDS011;38052;45.944;13.624;2022-11-20T15:50:55;4.63;;;2.58;;
52041;SDS011;38052;45.944;13.624;2022-11-20T15:53:22;3.55;;;1.80;;
52041;SDS011;38052;45.944;13.624;2022-11-20T15:55:49;3.88;;;1.80;;
52041;SDS011;38052;45.944;13.624;2022-11-20T15:58:15;2.53;;;1.60;;
52041;SDS011;38052;45.944;13.624;2022-11-20T16:00:42;3.05;;;2.03;;
52041;SDS011;38052;45.944;13.624;2022-11-20T16:03:10;4.40;;;2.17;;
52041;SDS011;38052;45.944;13.624;2022-11-20T16:05:36;4.68;;;2.50;;
52041;SDS011;38052;45.944;13.624;2022-11-20T16:08:02;8.80;;;2.97;;
52041;SDS011;38052;45.944;13.624;2022-11-20T16:10:29;5.90;;;2.42;;
52041;SDS011;38052;45.944;13.624;2022-11-20T16:12:55;6.82;;;2.40;;
52041;SDS011;38052;45.944;13.624;2022-11-20T16:15:42;5.10;;;2.97;;
52041;SDS011;38052;45.944;13.624;2022-11-20T16:18:12;7.35;;;2.78;;
52041;SDS011;38052;45.944;13.624;2022-11-20T16:20:39;5.95;;;3.55;;
52041;SDS011;38052;45.944;13.624;2022-11-20T16:23:06;5.32;;;3.20;;
52041;SDS011;38052;45.944;13.624;2022-11-20T16:25:32;4.65;;;2.70;;
52041;SDS011;38052;45.944;13.624;2022-11-20T16:27:58;5.30;;;2.67;;
52041;SDS011;38052;45.944;13.624;2022-11-20T16:30:25;6.53;;;2.03;;
52041;SDS011;38052;45.944;13.624;2022-11-20T16:32:52;4.47;;;2.83;;
52041;SDS011;38052;45.944;13.624;2022-11-20T16:35:18;5.35;;;3.85;;